createdAt,value
2023-02-25T00:00:05.867Z,4.44
2023-02-25T00:01:05.864Z,4.52
2023-02-25T00:02:05.964Z,4.50
2023-02-25T00:03:06.004Z,4.50
2023-02-25T00:04:05.882Z,4.46
2023-02-25T00:05:05.834Z,4.39
2023-02-25T00:06:05.826Z,4.47
2023-02-25T00:07:05.824Z,4.47
2023-02-25T00:08:05.807Z,4.42
2023-02-25T00:09:05.790Z,4.44
2023-02-25T00:10:05.790Z,4.40
2023-02-25T00:11:05.811Z,4.43
2023-02-25T00:12:05.770Z,4.50
2023-02-25T00:13:17.351Z,4.44
2023-02-25T00:14:07.768Z,4.40
2023-02-25T00:15:05.771Z,4.37
2023-02-25T00:16:05.758Z,4.46
2023-02-25T00:17:05.816Z,4.42
2023-02-25T00:18:05.748Z,4.43
2023-02-25T00:19:06.805Z,4.54
2023-02-25T00:20:05.725Z,4.46
2023-02-25T00:21:05.712Z,4.39
2023-02-25T00:22:05.717Z,4.40
2023-02-25T00:23:05.702Z,4.51
2023-02-25T00:24:15.997Z,4.44
2023-02-25T00:25:07.698Z,4.46
2023-02-25T00:26:05.709Z,4.43
2023-02-25T00:27:05.682Z,4.46
2023-02-25T00:28:05.670Z,4.42
2023-02-25T00:29:05.682Z,4.46
2023-02-25T00:30:05.702Z,4.42
2023-02-25T00:31:05.752Z,4.40
2023-02-25T00:32:05.820Z,4.42
2023-02-25T00:33:05.647Z,4.50
2023-02-25T00:34:05.645Z,4.44
2023-02-25T00:35:05.630Z,4.55
2023-02-25T00:36:05.623Z,4.64
2023-02-25T00:37:05.649Z,4.58
2023-02-25T00:38:15.340Z,4.59
2023-02-25T00:39:07.644Z,4.59
2023-02-25T00:40:05.589Z,4.58
2023-02-25T00:41:05.595Z,4.61
2023-02-25T00:42:05.605Z,4.54
2023-02-25T00:43:05.576Z,4.62
2023-02-25T00:44:05.585Z,4.55
2023-02-25T00:45:05.572Z,4.58
2023-02-25T00:46:05.673Z,4.62
2023-02-25T00:47:05.569Z,4.62
2023-02-25T00:48:05.550Z,4.52
2023-02-25T00:49:05.553Z,4.64
2023-02-25T00:50:05.535Z,4.46
2023-02-25T00:51:05.533Z,4.50
2023-02-25T00:52:05.528Z,4.43
2023-02-25T00:53:05.511Z,4.32
2023-02-25T00:54:05.506Z,4.40
2023-02-25T00:55:05.501Z,4.37
2023-02-25T00:56:05.481Z,4.37
2023-02-25T00:57:06.500Z,4.25
2023-02-25T00:58:05.494Z,4.25
2023-02-25T00:59:05.492Z,4.21
2023-02-25T01:00:05.471Z,4.32
2023-02-25T01:01:05.460Z,4.25
2023-02-25T01:02:05.443Z,4.25
2023-02-25T01:03:05.516Z,4.26
2023-02-25T01:04:05.443Z,4.24
2023-02-25T01:05:05.419Z,4.22
2023-02-25T01:06:05.428Z,4.33
2023-02-25T01:07:05.429Z,4.21
2023-02-25T01:08:05.417Z,4.29
2023-02-25T01:09:05.439Z,4.24
2023-02-25T01:10:05.403Z,4.24
2023-02-25T01:11:05.402Z,4.24
2023-02-25T01:12:05.378Z,4.21
2023-02-25T01:13:05.380Z,4.22
2023-02-25T01:14:05.459Z,4.18
2023-02-25T01:15:05.395Z,4.32
2023-02-25T01:16:05.563Z,4.18
2023-02-25T01:17:05.347Z,4.15
2023-02-25T01:18:05.399Z,4.19
2023-02-25T01:19:05.332Z,4.24
2023-02-25T01:20:06.355Z,4.18
2023-02-25T01:21:05.324Z,4.26
2023-02-25T01:22:05.312Z,4.16
2023-02-25T01:23:05.317Z,4.18
2023-02-25T01:24:05.306Z,4.21
2023-02-25T01:25:05.292Z,4.10
2023-02-25T01:26:05.300Z,4.16
2023-02-25T01:27:05.286Z,4.14
2023-02-25T01:28:05.276Z,4.16
2023-02-25T01:29:05.260Z,4.15
2023-02-25T01:30:05.257Z,4.24
2023-02-25T01:31:05.366Z,4.12
2023-02-25T01:32:05.369Z,4.18
2023-02-25T01:33:05.255Z,4.28
2023-02-25T01:34:05.230Z,4.29
2023-02-25T01:35:05.233Z,4.18
2023-02-25T01:36:05.224Z,4.18
2023-02-25T01:37:05.229Z,4.06
2023-02-25T01:38:05.243Z,4.19
2023-02-25T01:39:05.200Z,4.03
2023-02-25T01:40:05.191Z,4.04
2023-02-25T01:41:05.197Z,4.10
2023-02-25T01:42:05.184Z,3.97
2023-02-25T01:43:05.174Z,4.00
2023-02-25T01:44:05.235Z,3.98
2023-02-25T01:45:05.155Z,3.96
2023-02-25T01:46:05.151Z,4.04
2023-02-25T01:47:05.143Z,4.03
2023-02-25T01:48:05.158Z,4.10
2023-02-25T01:49:05.142Z,4.00
2023-02-25T01:50:05.141Z,4.08
2023-02-25T01:51:05.123Z,4.12
2023-02-25T01:52:05.283Z,3.98
2023-02-25T01:53:05.104Z,4.04
2023-02-25T01:54:05.118Z,3.98
2023-02-25T01:55:05.101Z,4.04
2023-02-25T01:56:05.108Z,3.97
2023-02-25T01:57:05.096Z,4.08
2023-02-25T01:58:05.078Z,4.12
2023-02-25T01:59:05.089Z,4.03
2023-02-25T02:00:05.069Z,4.16
2023-02-25T02:01:05.135Z,4.22
2023-02-25T02:02:05.120Z,4.18
2023-02-25T02:03:05.052Z,4.15
2023-02-25T02:04:05.043Z,4.10
2023-02-25T02:05:05.042Z,4.12
2023-02-25T02:06:06.037Z,4.18
2023-02-25T02:07:05.016Z,4.18
2023-02-25T02:08:05.025Z,4.19
2023-02-25T02:09:05.009Z,4.16
2023-02-25T02:10:05.020Z,4.16
2023-02-25T02:11:04.975Z,4.19
2023-02-25T02:12:05.024Z,4.21
2023-02-25T02:13:04.974Z,4.22
2023-02-25T02:14:04.965Z,4.21
2023-02-25T02:15:04.958Z,4.22
2023-02-25T02:16:04.989Z,4.18
2023-02-25T02:17:04.949Z,4.18
2023-02-25T02:18:04.938Z,4.06
2023-02-25T02:19:04.933Z,4.22
2023-02-25T02:20:04.978Z,4.14
2023-02-25T02:21:04.930Z,4.21
2023-02-25T02:22:04.899Z,4.18
2023-02-25T02:23:04.903Z,4.19
2023-02-25T02:24:04.894Z,4.06
2023-02-25T02:25:04.917Z,4.12
2023-02-25T02:26:04.871Z,4.14
2023-02-25T02:27:04.877Z,4.06
2023-02-25T02:28:04.880Z,4.15
2023-02-25T02:29:04.862Z,4.08
2023-02-25T02:30:04.881Z,4.07
2023-02-25T02:31:04.871Z,4.14
2023-02-25T02:32:04.964Z,4.08
2023-02-25T02:33:04.842Z,4.03
2023-02-25T02:34:04.834Z,4.07
2023-02-25T02:35:04.821Z,4.07
2023-02-25T02:36:04.834Z,3.97
2023-02-25T02:37:04.805Z,4.07
2023-02-25T02:38:04.830Z,4.07
2023-02-25T02:39:04.797Z,4.06
2023-02-25T02:40:04.798Z,4.03
2023-02-25T02:41:04.777Z,4.04
2023-02-25T02:42:04.780Z,4.04
2023-02-25T02:43:04.786Z,4.08
2023-02-25T02:44:04.761Z,4.01
2023-02-25T02:45:04.824Z,4.01
2023-02-25T02:46:04.807Z,4.00
2023-02-25T02:47:04.757Z,3.96
2023-02-25T02:48:04.741Z,3.97
2023-02-25T02:49:04.727Z,3.98
2023-02-25T02:50:04.713Z,4.01
2023-02-25T02:51:04.722Z,4.01
2023-02-25T02:52:04.723Z,4.01
2023-02-25T02:53:04.721Z,3.98
2023-02-25T02:54:04.689Z,4.07
2023-02-25T02:55:04.686Z,3.98
2023-02-25T02:56:04.669Z,4.03
2023-02-25T02:57:04.672Z,4.01
2023-02-25T02:58:04.679Z,3.96
2023-02-25T02:59:04.653Z,4.03
2023-02-25T03:00:04.642Z,3.94
2023-02-25T03:01:04.673Z,4.00
2023-02-25T03:02:04.615Z,4.00
2023-02-25T03:03:05.650Z,3.90
2023-02-25T03:04:04.686Z,3.94
2023-02-25T03:05:04.594Z,3.98
2023-02-25T03:06:04.594Z,3.98
2023-02-25T03:07:04.594Z,3.94
2023-02-25T03:08:04.590Z,4.08
2023-02-25T03:09:04.595Z,4.07
2023-02-25T03:10:04.573Z,3.98
2023-02-25T03:11:04.581Z,3.96
2023-02-25T03:12:04.563Z,4.06
2023-02-25T03:13:04.569Z,4.06
2023-02-25T03:14:04.544Z,4.06
2023-02-25T03:15:04.598Z,4.03
2023-02-25T03:16:04.533Z,4.03
2023-02-25T03:17:04.630Z,3.98
2023-02-25T03:18:04.523Z,4.10
2023-02-25T03:19:04.513Z,3.98
2023-02-25T03:20:04.518Z,4.03
2023-02-25T03:21:04.551Z,4.06
2023-02-25T03:22:04.501Z,4.04
2023-02-25T03:23:04.491Z,3.97
2023-02-25T03:24:04.478Z,3.96
2023-02-25T03:25:04.565Z,3.98
2023-02-25T03:26:04.471Z,3.96
2023-02-25T03:27:04.462Z,3.97
2023-02-25T03:28:04.463Z,3.98
2023-02-25T03:29:04.523Z,3.97
2023-02-25T03:30:04.457Z,4.01
2023-02-25T03:31:04.504Z,3.98
2023-02-25T03:32:04.572Z,4.03
2023-02-25T03:33:04.432Z,3.94
2023-02-25T03:34:04.422Z,4.03
2023-02-25T03:35:04.449Z,4.01
2023-02-25T03:36:04.440Z,4.04
2023-02-25T03:37:04.420Z,4.06
2023-02-25T03:38:04.427Z,4.06
2023-02-25T03:39:04.391Z,4.04
2023-02-25T03:40:04.404Z,4.16
2023-02-25T03:41:04.389Z,4.06
2023-02-25T03:42:04.404Z,4.15
2023-02-25T03:43:05.349Z,4.22
2023-02-25T03:44:04.395Z,4.22
2023-02-25T03:45:04.391Z,4.15
2023-02-25T03:46:04.384Z,4.25
2023-02-25T03:47:04.339Z,4.15
2023-02-25T03:48:04.329Z,4.22
2023-02-25T03:49:04.337Z,4.15
2023-02-25T03:50:04.312Z,4.06
2023-02-25T03:51:04.314Z,4.04
2023-02-25T03:52:04.340Z,4.10
2023-02-25T03:53:04.296Z,4.10
2023-02-25T03:54:04.312Z,4.12
2023-02-25T03:55:04.295Z,4.08
2023-02-25T03:56:04.300Z,4.00
2023-02-25T03:57:04.293Z,4.16
2023-02-25T03:58:04.270Z,4.18
2023-02-25T03:59:04.254Z,4.08
2023-02-25T04:00:04.242Z,4.08
2023-02-25T04:01:04.252Z,4.14
2023-02-25T04:02:04.264Z,4.14
2023-02-25T04:03:04.223Z,4.18
2023-02-25T04:04:04.220Z,4.15
2023-02-25T04:05:04.211Z,4.12
2023-02-25T04:06:04.229Z,4.10
2023-02-25T04:07:04.197Z,4.00
2023-02-25T04:08:04.190Z,4.03
2023-02-25T04:09:04.187Z,3.98
2023-02-25T04:10:04.195Z,4.03
2023-02-25T04:11:04.195Z,4.04
2023-02-25T04:12:04.185Z,4.00
2023-02-25T04:13:04.162Z,3.97
2023-02-25T04:14:04.157Z,3.94
2023-02-25T04:15:04.139Z,3.94
2023-02-25T04:16:04.193Z,4.00
2023-02-25T04:17:04.120Z,4.06
2023-02-25T04:18:04.123Z,3.88
2023-02-25T04:19:04.109Z,3.97
2023-02-25T04:20:04.117Z,4.00
2023-02-25T04:21:04.124Z,4.00
2023-02-25T04:22:04.100Z,3.98
2023-02-25T04:23:04.097Z,4.03
2023-02-25T04:24:04.131Z,4.00
2023-02-25T04:25:05.074Z,4.03
2023-02-25T04:26:04.068Z,4.03
2023-02-25T04:27:04.088Z,4.01
2023-02-25T04:28:04.051Z,4.04
2023-02-25T04:29:04.041Z,3.98
2023-02-25T04:30:04.054Z,3.96
2023-02-25T04:31:04.197Z,3.85
2023-02-25T04:32:04.169Z,3.82
2023-02-25T04:33:04.018Z,3.94
2023-02-25T04:34:04.015Z,3.89
2023-02-25T04:35:04.002Z,3.85
2023-02-25T04:36:03.998Z,3.88
2023-02-25T04:37:03.990Z,3.86
2023-02-25T04:38:04.050Z,3.88
2023-02-25T04:39:03.976Z,3.94
2023-02-25T04:40:03.972Z,3.88
2023-02-25T04:41:03.973Z,3.86
2023-02-25T04:42:03.976Z,3.92
2023-02-25T04:43:03.967Z,3.85
2023-02-25T04:44:03.960Z,3.94
2023-02-25T04:45:03.933Z,3.86
2023-02-25T04:46:03.968Z,3.85
2023-02-25T04:47:03.926Z,3.92
2023-02-25T04:48:03.924Z,3.88
2023-02-25T04:49:03.928Z,3.97
2023-02-25T04:50:03.905Z,3.94
2023-02-25T04:51:03.903Z,3.88
2023-02-25T04:52:03.921Z,3.94
2023-02-25T04:53:03.896Z,3.92
2023-02-25T04:54:03.887Z,3.96
2023-02-25T04:55:03.896Z,3.94
2023-02-25T04:56:03.870Z,3.89
2023-02-25T04:57:03.870Z,3.92
2023-02-25T04:58:03.862Z,3.89
2023-02-25T04:59:03.867Z,3.83
2023-02-25T05:00:03.865Z,3.86
2023-02-25T05:01:03.842Z,3.88
2023-02-25T05:02:03.921Z,3.97
2023-02-25T05:03:03.818Z,3.88
2023-02-25T05:04:03.822Z,3.96
2023-02-25T05:05:03.915Z,4.00
2023-02-25T05:06:03.830Z,3.97
2023-02-25T05:07:03.799Z,4.01
2023-02-25T05:08:03.800Z,3.88
2023-02-25T05:09:03.794Z,3.94
2023-02-25T05:10:03.792Z,3.97
2023-02-25T05:11:03.770Z,3.88
2023-02-25T05:12:03.783Z,3.97
2023-02-25T05:13:03.757Z,3.97
2023-02-25T05:14:03.760Z,3.94
2023-02-25T05:15:03.797Z,3.89
2023-02-25T05:16:03.778Z,4.01
2023-02-25T05:17:03.759Z,3.90
2023-02-25T05:18:03.727Z,3.96
2023-02-25T05:19:03.726Z,3.89
2023-02-25T05:20:03.788Z,3.98
2023-02-25T05:21:03.712Z,3.92
2023-02-25T05:22:03.734Z,3.90
2023-02-25T05:23:03.694Z,3.98
2023-02-25T05:24:03.679Z,3.90
2023-02-25T05:25:03.673Z,3.97
2023-02-25T05:26:03.676Z,3.92
2023-02-25T05:27:03.684Z,3.88
2023-02-25T05:28:04.949Z,3.98
2023-02-25T05:29:03.657Z,3.94
2023-02-25T05:30:03.764Z,3.89
2023-02-25T05:31:03.745Z,3.82
2023-02-25T05:32:03.906Z,3.92
2023-02-25T05:33:03.679Z,3.86
2023-02-25T05:34:03.644Z,4.00
2023-02-25T05:35:03.631Z,3.98
2023-02-25T05:36:03.605Z,3.97
2023-02-25T05:37:03.632Z,3.96
2023-02-25T05:38:03.580Z,3.85
2023-02-25T05:39:03.591Z,3.92
2023-02-25T05:40:03.577Z,3.97
2023-02-25T05:41:03.565Z,4.00
2023-02-25T05:42:03.567Z,3.94
2023-02-25T05:43:03.579Z,3.90
2023-02-25T05:44:03.552Z,4.04
2023-02-25T05:45:03.543Z,3.97
2023-02-25T05:46:03.535Z,4.00
2023-02-25T05:47:03.668Z,4.01
2023-02-25T05:48:03.563Z,3.97
2023-02-25T05:49:03.552Z,3.98
2023-02-25T05:50:03.539Z,3.92
2023-02-25T05:51:03.513Z,3.94
2023-02-25T05:52:03.507Z,3.83
2023-02-25T05:53:03.499Z,3.85
2023-02-25T05:54:03.490Z,3.88
2023-02-25T05:55:03.503Z,3.89
2023-02-25T05:56:03.491Z,3.88
2023-02-25T05:57:03.453Z,3.89
2023-02-25T05:58:03.495Z,3.88
2023-02-25T05:59:03.461Z,3.88
2023-02-25T06:00:03.457Z,3.89
2023-02-25T06:01:03.439Z,3.92
2023-02-25T06:02:03.513Z,3.97
2023-02-25T06:03:03.480Z,3.80
2023-02-25T06:04:03.426Z,3.76
2023-02-25T06:05:03.418Z,3.89
2023-02-25T06:06:03.392Z,3.86
2023-02-25T06:07:03.407Z,3.90
2023-02-25T06:08:03.381Z,3.92
2023-02-25T06:09:03.379Z,3.86
2023-02-25T06:10:03.395Z,3.89
2023-02-25T06:11:03.379Z,3.85
2023-02-25T06:12:03.351Z,3.96
2023-02-25T06:13:03.364Z,3.96
2023-02-25T06:14:03.348Z,4.00
2023-02-25T06:15:03.348Z,3.89
2023-02-25T06:16:03.359Z,3.86
2023-02-25T06:17:03.342Z,3.86
2023-02-25T06:18:03.318Z,3.86
2023-02-25T06:19:03.344Z,3.82
2023-02-25T06:20:03.302Z,3.79
2023-02-25T06:21:03.297Z,3.86
2023-02-25T06:22:03.282Z,3.80
2023-02-25T06:23:03.276Z,3.89
2023-02-25T06:24:05.548Z,3.86
2023-02-25T06:25:03.278Z,3.86
2023-02-25T06:26:03.262Z,3.85
2023-02-25T06:27:03.256Z,3.90
2023-02-25T06:28:03.255Z,3.94
2023-02-25T06:29:03.240Z,3.86
2023-02-25T06:30:03.266Z,3.94
2023-02-25T06:31:03.311Z,3.97
2023-02-25T06:32:03.309Z,4.01
2023-02-25T06:33:03.226Z,3.90
2023-02-25T06:34:03.232Z,3.96
2023-02-25T06:35:03.216Z,3.92
2023-02-25T06:36:03.203Z,3.86
2023-02-25T06:37:03.235Z,3.94
2023-02-25T06:38:03.189Z,3.90
2023-02-25T06:39:03.196Z,3.88
2023-02-25T06:40:03.168Z,3.90
2023-02-25T06:41:03.173Z,3.94
2023-02-25T06:42:03.155Z,3.85
2023-02-25T06:43:03.169Z,3.90
2023-02-25T06:44:03.183Z,3.97
2023-02-25T06:45:03.150Z,3.96
2023-02-25T06:46:03.206Z,4.08
2023-02-25T06:47:03.127Z,4.10
2023-02-25T06:48:03.125Z,4.04
2023-02-25T06:49:03.141Z,4.07
2023-02-25T06:50:03.161Z,4.14
2023-02-25T06:51:03.137Z,4.15
2023-02-25T06:52:03.111Z,4.21
2023-02-25T06:53:03.088Z,4.16
2023-02-25T06:54:03.104Z,4.18
2023-02-25T06:55:03.115Z,4.25
2023-02-25T06:56:03.076Z,4.18
2023-02-25T06:57:03.064Z,4.18
2023-02-25T06:58:03.061Z,4.00
2023-02-25T06:59:03.047Z,4.08
2023-02-25T07:00:03.041Z,4.08
2023-02-25T07:01:03.050Z,4.06
2023-02-25T07:02:03.036Z,3.97
2023-02-25T07:03:03.100Z,3.98
2023-02-25T07:04:03.041Z,4.04
2023-02-25T07:05:03.020Z,3.94
2023-02-25T07:06:03.022Z,3.94
2023-02-25T07:07:03.019Z,3.97
2023-02-25T07:08:02.986Z,3.98
2023-02-25T07:09:02.982Z,3.96
2023-02-25T07:10:02.993Z,3.92
2023-02-25T07:11:03.965Z,4.06
2023-02-25T07:12:02.961Z,4.04
2023-02-25T07:13:02.951Z,4.03
2023-02-25T07:14:02.945Z,3.96
2023-02-25T07:15:02.955Z,4.07
2023-02-25T07:16:03.015Z,4.06
2023-02-25T07:17:02.930Z,4.18
2023-02-25T07:18:02.953Z,4.07
2023-02-25T07:19:02.927Z,4.14
2023-02-25T07:20:02.954Z,4.19
2023-02-25T07:21:02.896Z,4.21
2023-02-25T07:22:02.902Z,4.16
2023-02-25T07:23:02.915Z,4.25
2023-02-25T07:24:02.878Z,4.25
2023-02-25T07:25:03.039Z,4.18
2023-02-25T07:26:02.888Z,4.22
2023-02-25T07:27:02.869Z,4.29
2023-02-25T07:28:02.859Z,4.18
2023-02-25T07:29:02.848Z,4.36
2023-02-25T07:30:02.836Z,4.25
2023-02-25T07:31:02.975Z,4.21
2023-02-25T07:32:03.148Z,4.19
2023-02-25T07:33:03.076Z,4.16
2023-02-25T07:34:03.815Z,4.22
2023-02-25T07:35:02.817Z,4.25
2023-02-25T07:36:02.804Z,4.22
2023-02-25T07:37:02.797Z,4.14
2023-02-25T07:38:02.787Z,4.14
2023-02-25T07:39:02.797Z,4.16
2023-02-25T07:40:02.775Z,4.18
2023-02-25T07:41:02.767Z,4.29
2023-02-25T07:42:02.767Z,4.33
2023-02-25T07:43:02.770Z,4.29
2023-02-25T07:44:02.750Z,4.29
2023-02-25T07:45:02.822Z,4.16
2023-02-25T07:46:02.789Z,4.25
2023-02-25T07:47:02.744Z,4.26
2023-02-25T07:48:02.717Z,4.19
2023-02-25T07:49:02.735Z,4.26
2023-02-25T07:50:02.717Z,4.22
2023-02-25T07:51:02.705Z,4.14
2023-02-25T07:52:02.729Z,4.06
2023-02-25T07:53:02.698Z,4.03
2023-02-25T07:54:02.703Z,3.94
2023-02-25T07:55:02.684Z,3.83
2023-02-25T07:56:02.670Z,3.89
2023-02-25T07:57:02.690Z,3.88
2023-02-25T07:58:02.658Z,3.68
2023-02-25T07:59:02.664Z,3.67
2023-02-25T08:00:02.650Z,3.61
2023-02-25T08:01:02.634Z,3.60
2023-02-25T08:02:02.644Z,3.64
2023-02-25T08:03:02.629Z,3.58
2023-02-25T08:04:02.642Z,3.60
2023-02-25T08:05:02.637Z,3.42
2023-02-25T08:06:02.608Z,3.42
2023-02-25T08:07:02.597Z,3.39
2023-02-25T08:08:02.628Z,3.40
2023-02-25T08:09:02.618Z,3.34
2023-02-25T08:10:02.602Z,3.25
2023-02-25T08:11:02.580Z,3.44
2023-02-25T08:12:02.568Z,3.44
2023-02-25T08:13:02.571Z,3.49
2023-02-25T08:14:02.552Z,3.34
2023-02-25T08:15:02.548Z,3.50
2023-02-25T08:16:02.685Z,3.58
2023-02-25T08:17:02.531Z,3.46
2023-02-25T08:18:03.555Z,3.44
2023-02-25T08:19:02.562Z,3.49
2023-02-25T08:20:02.517Z,3.53
2023-02-25T08:21:03.111Z,3.52
2023-02-25T08:22:03.500Z,3.60
2023-02-25T08:23:02.513Z,3.64
2023-02-25T08:24:02.489Z,3.68
2023-02-25T08:25:02.522Z,3.68
2023-02-25T08:26:02.514Z,3.71
2023-02-25T08:27:02.472Z,3.90
2023-02-25T08:28:02.472Z,3.92
2023-02-25T08:29:02.488Z,3.98
2023-02-25T08:30:02.464Z,4.15
2023-02-25T08:31:02.598Z,4.29
2023-02-25T08:32:02.544Z,4.47
2023-02-25T08:33:02.495Z,4.65
2023-02-25T08:34:02.425Z,5.09
2023-02-25T08:35:02.460Z,5.70
2023-02-25T08:36:02.419Z,6.63
2023-02-25T08:37:02.412Z,8.36
2023-02-25T08:38:02.404Z,9.83
2023-02-25T08:39:02.391Z,10.37
2023-02-25T08:40:02.399Z,10.77
2023-02-25T08:41:02.400Z,11.25
2023-02-25T08:42:02.380Z,11.87
2023-02-25T08:43:02.385Z,11.36
2023-02-25T08:44:02.364Z,11.50
2023-02-25T08:45:02.380Z,11.34
2023-02-25T08:46:02.394Z,11.74
2023-02-25T08:47:02.406Z,11.82
2023-02-25T08:48:02.354Z,11.77
2023-02-25T08:49:02.368Z,11.36
2023-02-25T08:50:02.332Z,10.91
2023-02-25T08:51:02.309Z,10.62
2023-02-25T08:52:02.328Z,10.53
2023-02-25T08:53:02.289Z,10.30
2023-02-25T08:54:02.282Z,9.88
2023-02-25T08:55:03.288Z,9.53
2023-02-25T08:56:02.276Z,8.93
2023-02-25T08:57:02.275Z,8.45
2023-02-25T08:58:02.267Z,8.03
2023-02-25T08:59:02.272Z,7.78
2023-02-25T09:00:04.262Z,7.41
2023-02-25T09:01:02.297Z,6.98
2023-02-25T09:02:02.246Z,6.62
2023-02-25T09:03:02.258Z,6.41
2023-02-25T09:04:02.224Z,6.11
2023-02-25T09:05:02.223Z,5.98
2023-02-25T09:06:02.224Z,5.96
2023-02-25T09:07:02.235Z,5.59
2023-02-25T09:08:02.214Z,5.53
2023-02-25T09:09:02.200Z,5.50
2023-02-25T09:10:02.190Z,5.55
2023-02-25T09:11:02.187Z,5.66
2023-02-25T09:12:02.170Z,5.60
2023-02-25T09:13:02.163Z,5.49
2023-02-25T09:14:02.176Z,5.31
2023-02-25T09:15:02.176Z,5.07
2023-02-25T09:16:02.148Z,4.86
2023-02-25T09:17:03.143Z,4.89
2023-02-25T09:18:02.134Z,4.75
2023-02-25T09:19:02.130Z,4.58
2023-02-25T09:20:02.119Z,4.50
2023-02-25T09:21:02.098Z,4.43
2023-02-25T09:22:02.096Z,4.46
2023-02-25T09:23:02.095Z,4.29
2023-02-25T09:24:02.087Z,4.32
2023-02-25T09:25:02.084Z,4.52
2023-02-25T09:26:02.082Z,4.58
2023-02-25T09:27:02.066Z,4.62
2023-02-25T09:28:02.069Z,4.55
2023-02-25T09:29:02.046Z,4.55
2023-02-25T09:30:02.043Z,4.76
2023-02-25T09:31:02.116Z,4.79
2023-02-25T09:32:02.107Z,4.80
2023-02-25T09:33:02.199Z,4.94
2023-02-25T09:34:02.000Z,5.17
2023-02-25T09:35:01.994Z,5.38
2023-02-25T09:36:02.004Z,5.52
2023-02-25T09:37:01.992Z,5.63
2023-02-25T09:38:01.999Z,5.85
2023-02-25T09:39:01.965Z,5.93
2023-02-25T09:40:01.963Z,6.01
2023-02-25T09:41:01.958Z,6.25
2023-02-25T09:42:01.971Z,6.43
2023-02-25T09:43:01.940Z,6.62
2023-02-25T09:44:01.941Z,6.68
2023-02-25T09:45:01.919Z,7.08
2023-02-25T09:46:02.989Z,7.24
2023-02-25T09:47:01.905Z,7.16
2023-02-25T09:48:01.944Z,7.13
2023-02-25T09:49:01.901Z,7.12
2023-02-25T09:50:01.912Z,6.98
2023-02-25T09:51:01.879Z,6.86
2023-02-25T09:52:01.887Z,6.72
2023-02-25T09:53:01.873Z,6.91
2023-02-25T09:54:01.896Z,6.84
2023-02-25T09:55:01.844Z,6.72
2023-02-25T09:56:01.850Z,6.69
2023-02-25T09:57:01.848Z,6.73
2023-02-25T09:58:01.836Z,6.69
2023-02-25T09:59:01.848Z,6.83
2023-02-25T10:00:01.826Z,6.83
2023-02-25T10:01:01.844Z,6.76
2023-02-25T10:02:01.830Z,6.90
2023-02-25T10:03:01.969Z,6.66
2023-02-25T10:04:01.816Z,6.77
2023-02-25T10:05:01.800Z,6.84
2023-02-25T10:06:01.782Z,6.97
2023-02-25T10:07:01.770Z,6.95
2023-02-25T10:08:01.776Z,6.91
2023-02-25T10:09:01.758Z,6.81
2023-02-25T10:10:01.778Z,6.89
2023-02-25T10:11:01.765Z,6.84
2023-02-25T10:12:01.736Z,6.69
2023-02-25T10:13:01.731Z,6.76
2023-02-25T10:14:01.721Z,6.84
2023-02-25T10:15:01.716Z,6.89
2023-02-25T10:16:01.737Z,6.86
2023-02-25T10:17:01.806Z,6.89
2023-02-25T10:18:01.697Z,6.95
2023-02-25T10:19:01.762Z,6.99
2023-02-25T10:20:01.686Z,6.89
2023-02-25T10:21:01.752Z,6.94
2023-02-25T10:22:01.697Z,6.98
2023-02-25T10:23:01.661Z,6.99
2023-02-25T10:24:01.667Z,6.90
2023-02-25T10:25:01.650Z,6.90
2023-02-25T10:26:01.664Z,6.83
2023-02-25T10:27:01.632Z,6.80
2023-02-25T10:28:01.641Z,6.99
2023-02-25T10:29:01.656Z,7.04
2023-02-25T10:30:01.639Z,7.17
2023-02-25T10:31:01.728Z,7.38
2023-02-25T10:32:01.858Z,7.62
2023-02-25T10:33:01.596Z,7.74
2023-02-25T10:34:03.891Z,7.78
2023-02-25T10:35:02.582Z,7.78
2023-02-25T10:36:01.566Z,9.04
2023-02-25T10:37:02.571Z,11.06
2023-02-25T10:38:01.561Z,12.79
2023-02-25T10:39:01.548Z,13.03
2023-02-25T10:40:04.352Z,13.24
2023-02-25T10:41:01.538Z,12.92
2023-02-25T10:42:01.547Z,12.56
2023-02-25T10:43:01.532Z,12.05
2023-02-25T10:44:01.522Z,11.72
2023-02-25T10:45:01.546Z,11.27
2023-02-25T10:46:01.532Z,10.71
2023-02-25T10:47:01.506Z,10.42
2023-02-25T10:48:01.488Z,10.24
2023-02-25T10:49:01.493Z,10.03
2023-02-25T10:50:01.482Z,9.67
2023-02-25T10:51:01.492Z,9.31
2023-02-25T10:52:01.478Z,9.16
2023-02-25T10:53:01.485Z,8.69
2023-02-25T10:54:01.474Z,8.66
2023-02-25T10:55:01.461Z,8.57
2023-02-25T10:56:01.492Z,8.68
2023-02-25T10:57:01.432Z,8.39
2023-02-25T10:58:01.428Z,8.12
2023-02-25T10:59:01.433Z,7.90
2023-02-25T11:00:01.444Z,7.59
2023-02-25T11:01:01.440Z,7.29
2023-02-25T11:02:01.522Z,6.68
2023-02-25T11:03:01.698Z,6.32
2023-02-25T11:04:01.395Z,5.85
2023-02-25T11:05:01.419Z,5.56
2023-02-25T11:06:01.384Z,5.35
2023-02-25T11:07:01.388Z,5.04
2023-02-25T11:08:01.373Z,4.92
2023-02-25T11:09:01.368Z,4.89
2023-02-25T11:10:01.357Z,4.79
2023-02-25T11:11:01.349Z,4.77
2023-02-25T11:12:01.377Z,4.80
2023-02-25T11:13:01.433Z,4.79
2023-02-25T11:14:01.345Z,4.92
2023-02-25T11:15:01.324Z,4.89
2023-02-25T11:16:01.361Z,4.95
2023-02-25T11:17:01.329Z,4.96
2023-02-25T11:18:01.297Z,5.04
2023-02-25T11:19:01.297Z,5.16
2023-02-25T11:20:01.299Z,5.23
2023-02-25T11:21:01.292Z,5.27
2023-02-25T11:22:01.293Z,5.25
2023-02-25T11:23:01.299Z,5.34
2023-02-25T11:24:01.278Z,5.52
2023-02-25T11:25:01.255Z,5.60
2023-02-25T11:26:01.249Z,5.63
2023-02-25T11:27:01.240Z,5.74
2023-02-25T11:28:01.258Z,6.03
2023-02-25T11:29:01.258Z,6.51
2023-02-25T11:30:01.224Z,6.59
2023-02-25T11:31:01.306Z,6.76
2023-02-25T11:32:01.397Z,8.44
2023-02-25T11:33:01.230Z,9.67
2023-02-25T11:34:01.271Z,9.76
2023-02-25T11:35:01.186Z,10.37
2023-02-25T11:36:01.183Z,10.96
2023-02-25T11:37:01.172Z,11.97
2023-02-25T11:38:01.177Z,13.25
2023-02-25T11:39:01.176Z,14.42
2023-02-25T11:40:01.148Z,15.54
2023-02-25T11:41:01.150Z,16.40
2023-02-25T11:42:01.124Z,17.44
2023-02-25T11:43:01.135Z,18.00
2023-02-25T11:44:03.028Z,18.42
2023-02-25T11:45:02.125Z,18.33
2023-02-25T11:46:01.152Z,17.84
2023-02-25T11:47:01.096Z,16.75
2023-02-25T11:48:01.101Z,16.06
2023-02-25T11:49:01.099Z,14.88
2023-02-25T11:50:01.077Z,13.92
2023-02-25T11:51:01.096Z,13.24
2023-02-25T11:52:01.058Z,12.92
2023-02-25T11:53:01.060Z,12.30
2023-02-25T11:54:01.082Z,11.85
2023-02-25T11:55:01.037Z,12.01
2023-02-25T11:56:01.030Z,11.67
2023-02-25T11:57:01.021Z,12.41
2023-02-25T11:58:01.020Z,13.21
2023-02-25T11:59:01.026Z,14.02
2023-02-25T12:00:01.001Z,15.23
2023-02-25T12:01:00.995Z,14.65
2023-02-25T12:02:00.990Z,14.42
2023-02-25T12:03:01.046Z,13.95
2023-02-25T12:04:01.260Z,13.33
2023-02-25T12:05:01.997Z,12.87
2023-02-25T12:06:00.984Z,12.39
2023-02-25T12:07:00.954Z,12.13
2023-02-25T12:08:12.889Z,11.65
2023-02-25T12:09:02.940Z,11.02
2023-02-25T12:10:00.953Z,10.53
2023-02-25T12:11:00.937Z,10.19
2023-02-25T12:12:00.925Z,9.79
2023-02-25T12:13:00.907Z,9.86
2023-02-25T12:14:00.938Z,9.73
2023-02-25T12:15:00.904Z,10.36
2023-02-25T12:16:00.916Z,10.55
2023-02-25T12:17:00.879Z,10.51
2023-02-25T12:18:00.909Z,10.53
2023-02-25T12:19:02.573Z,10.47
2023-02-25T12:20:00.864Z,10.39
2023-02-25T12:21:00.856Z,9.86
2023-02-25T12:22:00.848Z,10.51
2023-02-25T12:23:00.841Z,10.46
2023-02-25T12:24:00.842Z,10.47
2023-02-25T12:25:00.831Z,10.36
2023-02-25T12:26:00.825Z,10.03
2023-02-25T12:27:00.818Z,9.93
2023-02-25T12:28:00.819Z,9.73
2023-02-25T12:29:00.828Z,9.82
2023-02-25T12:30:00.813Z,9.61
2023-02-25T12:31:00.816Z,9.58
2023-02-25T12:32:00.872Z,9.52
2023-02-25T12:33:00.790Z,9.67
2023-02-25T12:34:00.746Z,9.75
2023-02-25T12:35:01.759Z,9.64
2023-02-25T12:36:00.749Z,9.48
2023-02-25T12:37:00.732Z,9.48
2023-02-25T12:38:00.750Z,9.60
2023-02-25T12:39:00.733Z,9.30
2023-02-25T12:40:00.741Z,9.18
2023-02-25T12:41:00.729Z,9.01
2023-02-25T12:42:00.699Z,8.97
2023-02-25T12:43:00.742Z,9.09
2023-02-25T12:44:00.682Z,9.15
2023-02-25T12:45:00.677Z,9.16
2023-02-25T12:46:00.709Z,9.12
2023-02-25T12:47:00.663Z,9.16
2023-02-25T12:48:00.661Z,9.04
2023-02-25T12:49:00.666Z,8.78
2023-02-25T12:50:00.635Z,8.75
2023-02-25T12:51:00.631Z,8.58
2023-02-25T12:52:00.621Z,8.58
2023-02-25T12:53:00.624Z,8.53
2023-02-25T12:54:00.625Z,9.04
2023-02-25T12:55:00.602Z,10.47
2023-02-25T12:56:01.606Z,11.82
2023-02-25T12:57:00.622Z,12.93
2023-02-25T12:58:00.573Z,13.84
2023-02-25T12:59:00.609Z,14.84
2023-02-25T13:00:00.578Z,15.39
2023-02-25T13:01:00.594Z,14.62
2023-02-25T13:02:00.557Z,14.02
2023-02-25T13:03:00.550Z,13.41
2023-02-25T13:04:00.562Z,12.67
2023-02-25T13:05:00.565Z,11.74
2023-02-25T13:06:00.538Z,10.65
2023-02-25T13:07:00.529Z,10.21
2023-02-25T13:08:00.547Z,9.48
2023-02-25T13:09:01.331Z,8.99
2023-02-25T13:10:01.493Z,8.55
2023-02-25T13:11:00.495Z,8.10
2023-02-25T13:12:11.613Z,7.79
2023-02-25T13:13:02.503Z,7.60
2023-02-25T13:14:00.464Z,7.32
2023-02-25T13:15:00.505Z,7.24